sensor_id;sensor_type;location;lat;lon;timestamp;P1;durP1;ratioP1;P2;durP2;ratioP2
5869;SDS011;2961;47.702;9.410;2023-05-16T00:01:05;4.10;;;3.80;;
5869;SDS011;2961;47.702;9.410;2023-05-16T00:03:33;4.20;;;4.00;;
5869;SDS011;2961;47.702;9.410;2023-05-16T00:06:00;4.93;;;4.50;;
5869;SDS011;2961;47.702;9.410;2023-05-16T00:08:27;6.53;;;4.17;;
5869;SDS011;2961;47.702;9.410;2023-05-16T00:10:54;4.00;;;3.80;;
5869;SDS011;2961;47.702;9.410;2023-05-16T00:13:21;4.77;;;4.47;;
5869;SDS011;2961;47.702;9.410;2023-05-16T00:15:49;4.80;;;4.40;;
5869;SDS011;2961;47.702;9.410;2023-05-16T00:18:16;4.70;;;4.30;;
5869;SDS011;2961;47.702;9.410;2023-05-16T00:20:44;5.10;;;4.37;;
5869;SDS011;2961;47.702;9.410;2023-05-16T00:23:11;4.93;;;4.60;;
5869;SDS011;2961;47.702;9.410;2023-05-16T00:25:38;5.17;;;4.60;;
5869;SDS011;2961;47.702;9.410;2023-05-16T00:28:05;6.13;;;5.13;;
5869;SDS011;2961;47.702;9.410;2023-05-16T00:30:32;4.80;;;4.50;;
5869;SDS011;2961;47.702;9.410;2023-05-16T00:32:59;4.53;;;4.13;;
5869;SDS011;2961;47.702;9.410;2023-05-16T00:35:26;5.13;;;4.83;;
5869;SDS011;2961;47.702;9.410;2023-05-16T00:37:54;7.70;;;4.63;;
5869;SDS011;2961;47.702;9.410;2023-05-16T00:40:21;4.83;;;4.53;;
5869;SDS011;2961;47.702;9.410;2023-05-16T00:42:48;12.53;;;5.23;;
5869;SDS011;2961;47.702;9.410;2023-05-16T00:45:14;6.30;;;4.53;;
5869;SDS011;2961;47.702;9.410;2023-05-16T00:47:41;5.37;;;4.87;;
5869;SDS011;2961;47.702;9.410;2023-05-16T00:50:08;5.27;;;4.80;;
5869;SDS011;2961;47.702;9.410;2023-05-16T00:52:35;4.93;;;4.53;;
5869;SDS011;2961;47.702;9.410;2023-05-16T00:55:04;5.73;;;4.80;;
5869;SDS011;2961;47.702;9.410;2023-05-16T00:57:34;5.07;;;4.60;;
5869;SDS011;2961;47.702;9.410;2023-05-16T01:00:01;5.20;;;4.70;;
5869;SDS011;2961;47.702;9.410;2023-05-16T01:02:29;5.53;;;5.00;;
5869;SDS011;2961;47.702;9.410;2023-05-16T01:04:56;4.40;;;3.97;;
5869;SDS011;2961;47.702;9.410;2023-05-16T01:07:23;5.30;;;4.30;;
5869;SDS011;2961;47.702;9.410;2023-05-16T01:09:50;4.80;;;4.13;;
5869;SDS011;2961;47.702;9.410;2023-05-16T01:15:07;4.67;;;4.33;;
5869;SDS011;2961;47.702;9.410;2023-05-16T01:17:42;5.37;;;4.87;;
5869;SDS011;2961;47.702;9.410;2023-05-16T01:20:18;4.70;;;4.37;;
5869;SDS011;2961;47.702;9.410;2023-05-16T01:22:58;8.03;;;3.87;;
5869;SDS011;2961;47.702;9.410;2023-05-16T01:25:36;4.80;;;4.47;;
5869;SDS011;2961;47.702;9.410;2023-05-16T01:28:12;6.80;;;4.30;;
5869;SDS011;2961;47.702;9.410;2023-05-16T01:30:42;5.10;;;4.70;;
5869;SDS011;2961;47.702;9.410;2023-05-16T01:33:09;4.83;;;4.53;;
5869;SDS011;2961;47.702;9.410;2023-05-16T01:35:37;9.13;;;5.30;;
5869;SDS011;2961;47.702;9.410;2023-05-16T01:38:09;6.03;;;5.50;;
5869;SDS011;2961;47.702;9.410;2023-05-16T01:40:44;6.40;;;4.93;;
5869;SDS011;2961;47.702;9.410;2023-05-16T01:43:19;7.23;;;5.97;;
5869;SDS011;2961;47.702;9.410;2023-05-16T01:45:56;5.30;;;5.00;;
5869;SDS011;2961;47.702;9.410;2023-05-16T01:48:29;5.57;;;4.97;;
5869;SDS011;2961;47.702;9.410;2023-05-16T01:51:09;9.13;;;5.03;;
5869;SDS011;2961;47.702;9.410;2023-05-16T01:53:38;5.57;;;5.07;;
5869;SDS011;2961;47.702;9.410;2023-05-16T01:56:08;6.43;;;5.83;;
5869;SDS011;2961;47.702;9.410;2023-05-16T01:58:41;21.53;;;5.27;;
5869;SDS011;2961;47.702;9.410;2023-05-16T02:01:11;6.33;;;5.73;;
5869;SDS011;2961;47.702;9.410;2023-05-16T02:03:38;5.90;;;5.33;;
5869;SDS011;2961;47.702;9.410;2023-05-16T02:06:05;7.13;;;5.70;;
5869;SDS011;2961;47.702;9.410;2023-05-16T02:08:32;6.33;;;5.83;;
5869;SDS011;2961;47.702;9.410;2023-05-16T02:10:59;10.67;;;5.50;;
5869;SDS011;2961;47.702;9.410;2023-05-16T02:13:26;5.30;;;4.87;;
5869;SDS011;2961;47.702;9.410;2023-05-16T02:15:54;5.73;;;5.33;;
5869;SDS011;2961;47.702;9.410;2023-05-16T02:18:20;5.77;;;5.27;;
5869;SDS011;2961;47.702;9.410;2023-05-16T02:20:47;6.20;;;5.60;;
5869;SDS011;2961;47.702;9.410;2023-05-16T02:23:14;5.90;;;5.40;;
5869;SDS011;2961;47.702;9.410;2023-05-16T02:25:41;6.20;;;5.63;;
5869;SDS011;2961;47.702;9.410;2023-05-16T02:28:08;5.37;;;4.97;;
5869;SDS011;2961;47.702;9.410;2023-05-16T02:30:34;5.53;;;4.73;;
5869;SDS011;2961;47.702;9.410;2023-05-16T02:33:03;5.43;;;4.93;;
5869;SDS011;2961;47.702;9.410;2023-05-16T02:35:30;5.73;;;5.20;;
5869;SDS011;2961;47.702;9.410;2023-05-16T02:37:56;7.20;;;4.83;;
5869;SDS011;2961;47.702;9.410;2023-05-16T02:40:23;5.80;;;5.30;;
5869;SDS011;2961;47.702;9.410;2023-05-16T02:42:50;5.13;;;4.70;;
5869;SDS011;2961;47.702;9.410;2023-05-16T02:45:17;5.07;;;4.67;;
5869;SDS011;2961;47.702;9.410;2023-05-16T02:47:43;5.90;;;5.40;;
5869;SDS011;2961;47.702;9.410;2023-05-16T02:50:11;6.40;;;5.77;;
5869;SDS011;2961;47.702;9.410;2023-05-16T02:52:38;5.57;;;5.00;;
5869;SDS011;2961;47.702;9.410;2023-05-16T02:55:05;10.80;;;5.60;;
5869;SDS011;2961;47.702;9.410;2023-05-16T02:57:32;6.67;;;5.27;;
5869;SDS011;2961;47.702;9.410;2023-05-16T02:59:59;5.87;;;5.37;;
5869;SDS011;2961;47.702;9.410;2023-05-16T03:02:26;5.80;;;5.40;;
5869;SDS011;2961;47.702;9.410;2023-05-16T03:04:53;5.50;;;4.97;;
5869;SDS011;2961;47.702;9.410;2023-05-16T03:07:21;5.80;;;5.40;;
5869;SDS011;2961;47.702;9.410;2023-05-16T03:09:47;5.17;;;4.77;;
5869;SDS011;2961;47.702;9.410;2023-05-16T03:12:14;5.77;;;5.37;;
5869;SDS011;2961;47.702;9.410;2023-05-16T03:14:41;5.50;;;4.90;;
5869;SDS011;2961;47.702;9.410;2023-05-16T03:17:09;5.37;;;4.97;;
5869;SDS011;2961;47.702;9.410;2023-05-16T03:19:36;5.00;;;4.70;;
5869;SDS011;2961;47.702;9.410;2023-05-16T03:22:02;5.47;;;5.17;;
5869;SDS011;2961;47.702;9.410;2023-05-16T03:24:31;6.20;;;5.33;;
5869;SDS011;2961;47.702;9.410;2023-05-16T03:26:57;5.67;;;5.27;;
5869;SDS011;2961;47.702;9.410;2023-05-16T03:29:24;5.83;;;5.33;;
5869;SDS011;2961;47.702;9.410;2023-05-16T03:31:52;6.27;;;5.77;;
5869;SDS011;2961;47.702;9.410;2023-05-16T03:34:19;5.10;;;4.73;;
5869;SDS011;2961;47.702;9.410;2023-05-16T03:36:46;5.50;;;5.10;;
5869;SDS011;2961;47.702;9.410;2023-05-16T03:39:13;5.10;;;4.80;;
5869;SDS011;2961;47.702;9.410;2023-05-16T03:41:42;5.97;;;5.57;;
5869;SDS011;2961;47.702;9.410;2023-05-16T03:44:09;5.60;;;5.20;;
5869;SDS011;2961;47.702;9.410;2023-05-16T03:46:36;5.70;;;5.20;;
5869;SDS011;2961;47.702;9.410;2023-05-16T03:49:02;5.23;;;4.83;;
5869;SDS011;2961;47.702;9.410;2023-05-16T03:51:29;5.10;;;4.80;;
5869;SDS011;2961;47.702;9.410;2023-05-16T03:53:57;6.40;;;4.60;;
5869;SDS011;2961;47.702;9.410;2023-05-16T03:56:23;5.43;;;4.83;;
5869;SDS011;2961;47.702;9.410;2023-05-16T03:58:52;6.73;;;4.83;;
5869;SDS011;2961;47.702;9.410;2023-05-16T04:01:18;6.40;;;5.00;;
5869;SDS011;2961;47.702;9.410;2023-05-16T04:03:45;4.43;;;4.13;;
5869;SDS011;2961;47.702;9.410;2023-05-16T04:06:12;5.97;;;5.37;;
5869;SDS011;2961;47.702;9.410;2023-05-16T04:08:39;5.07;;;4.77;;
5869;SDS011;2961;47.702;9.410;2023-05-16T04:11:08;4.50;;;4.20;;
5869;SDS011;2961;47.702;9.410;2023-05-16T04:13:36;4.13;;;3.93;;
5869;SDS011;2961;47.702;9.410;2023-05-16T04:16:04;11.53;;;5.20;;
5869;SDS011;2961;47.702;9.410;2023-05-16T04:18:31;5.53;;;4.90;;
5869;SDS011;2961;47.702;9.410;2023-05-16T04:20:58;4.03;;;3.73;;
5869;SDS011;2961;47.702;9.410;2023-05-16T04:23:25;4.87;;;4.47;;
5869;SDS011;2961;47.702;9.410;2023-05-16T04:25:51;4.30;;;4.00;;
5869;SDS011;2961;47.702;9.410;2023-05-16T04:28:21;4.20;;;3.90;;
5869;SDS011;2961;47.702;9.410;2023-05-16T04:30:48;4.30;;;4.00;;
5869;SDS011;2961;47.702;9.410;2023-05-16T04:33:16;5.07;;;3.77;;
5869;SDS011;2961;47.702;9.410;2023-05-16T04:35:43;4.40;;;4.10;;
5869;SDS011;2961;47.702;9.410;2023-05-16T04:38:10;9.90;;;4.80;;
5869;SDS011;2961;47.702;9.410;2023-05-16T04:40:37;4.47;;;4.07;;
5869;SDS011;2961;47.702;9.410;2023-05-16T04:43:04;5.23;;;4.83;;
5869;SDS011;2961;47.702;9.410;2023-05-16T04:45:31;5.93;;;4.73;;
5869;SDS011;2961;47.702;9.410;2023-05-16T04:47:58;4.63;;;4.33;;
5869;SDS011;2961;47.702;9.410;2023-05-16T04:50:27;5.60;;;5.20;;
5869;SDS011;2961;47.702;9.410;2023-05-16T04:52:54;7.00;;;4.93;;
5869;SDS011;2961;47.702;9.410;2023-05-16T04:55:20;4.43;;;4.13;;
5869;SDS011;2961;47.702;9.410;2023-05-16T04:57:47;4.70;;;4.40;;
5869;SDS011;2961;47.702;9.410;2023-05-16T05:00:14;19.70;;;5.40;;
5869;SDS011;2961;47.702;9.410;2023-05-16T05:02:42;12.10;;;4.70;;
5869;SDS011;2961;47.702;9.410;2023-05-16T05:05:09;6.97;;;6.07;;
5869;SDS011;2961;47.702;9.410;2023-05-16T05:07:38;7.20;;;6.60;;
5869;SDS011;2961;47.702;9.410;2023-05-16T05:10:05;8.53;;;6.20;;
5869;SDS011;2961;47.702;9.410;2023-05-16T05:12:32;8.43;;;5.77;;
5869;SDS011;2961;47.702;9.410;2023-05-16T05:15:00;6.77;;;6.10;;
5869;SDS011;2961;47.702;9.410;2023-05-16T05:17:27;7.30;;;6.60;;
5869;SDS011;2961;47.702;9.410;2023-05-16T05:19:53;8.53;;;7.10;;
5869;SDS011;2961;47.702;9.410;2023-05-16T05:22:20;8.13;;;7.33;;
5869;SDS011;2961;47.702;9.410;2023-05-16T05:24:48;7.13;;;6.63;;
5869;SDS011;2961;47.702;9.410;2023-05-16T05:27:15;6.30;;;5.80;;
5869;SDS011;2961;47.702;9.410;2023-05-16T05:29:42;6.60;;;6.00;;
5869;SDS011;2961;47.702;9.410;2023-05-16T05:32:09;8.23;;;6.67;;
5869;SDS011;2961;47.702;9.410;2023-05-16T05:34:36;7.80;;;7.10;;
5869;SDS011;2961;47.702;9.410;2023-05-16T05:37:03;9.77;;;8.80;;
5869;SDS011;2961;47.702;9.410;2023-05-16T05:39:30;11.27;;;9.97;;
5869;SDS011;2961;47.702;9.410;2023-05-16T05:41:58;26.13;;;12.73;;
5869;SDS011;2961;47.702;9.410;2023-05-16T05:44:25;17.50;;;13.60;;
5869;SDS011;2961;47.702;9.410;2023-05-16T05:46:52;16.50;;;14.17;;
5869;SDS011;2961;47.702;9.410;2023-05-16T05:49:19;19.23;;;13.03;;
5869;SDS011;2961;47.702;9.410;2023-05-16T05:51:46;23.80;;;15.00;;
5869;SDS011;2961;47.702;9.410;2023-05-16T05:54:15;26.93;;;18.10;;
5869;SDS011;2961;47.702;9.410;2023-05-16T05:56:42;28.90;;;17.07;;
5869;SDS011;2961;47.702;9.410;2023-05-16T05:59:11;21.00;;;14.90;;
5869;SDS011;2961;47.702;9.410;2023-05-16T06:01:37;15.00;;;11.37;;
5869;SDS011;2961;47.702;9.410;2023-05-16T06:04:22;16.15;;;13.00;;
5869;SDS011;2961;47.702;9.410;2023-05-16T06:06:48;15.30;;;13.50;;
5869;SDS011;2961;47.702;9.410;2023-05-16T06:09:15;19.70;;;13.50;;
5869;SDS011;2961;47.702;9.410;2023-05-16T06:11:42;22.20;;;15.77;;
5869;SDS011;2961;47.702;9.410;2023-05-16T06:14:11;20.20;;;15.50;;
5869;SDS011;2961;47.702;9.410;2023-05-16T06:16:39;21.80;;;15.17;;
5869;SDS011;2961;47.702;9.410;2023-05-16T06:19:06;17.77;;;12.50;;
5869;SDS011;2961;47.702;9.410;2023-05-16T06:21:33;16.80;;;14.03;;
5869;SDS011;2961;47.702;9.410;2023-05-16T06:24:00;24.27;;;14.73;;
5869;SDS011;2961;47.702;9.410;2023-05-16T06:26:27;14.43;;;12.43;;
5869;SDS011;2961;47.702;9.410;2023-05-16T06:28:54;16.83;;;10.90;;
5869;SDS011;2961;47.702;9.410;2023-05-16T06:31:22;14.50;;;11.40;;
5869;SDS011;2961;47.702;9.410;2023-05-16T06:33:48;16.20;;;11.50;;
5869;SDS011;2961;47.702;9.410;2023-05-16T06:36:15;10.30;;;9.30;;
5869;SDS011;2961;47.702;9.410;2023-05-16T06:38:42;12.53;;;11.17;;
5869;SDS011;2961;47.702;9.410;2023-05-16T06:41:09;15.33;;;13.20;;
5869;SDS011;2961;47.702;9.410;2023-05-16T06:43:36;18.50;;;14.80;;
5869;SDS011;2961;47.702;9.410;2023-05-16T06:46:03;13.37;;;11.90;;
5869;SDS011;2961;47.702;9.410;2023-05-16T06:48:31;13.97;;;12.03;;
5869;SDS011;2961;47.702;9.410;2023-05-16T06:50:58;16.20;;;14.50;;
5869;SDS011;2961;47.702;9.410;2023-05-16T06:53:24;17.97;;;15.03;;
5869;SDS011;2961;47.702;9.410;2023-05-16T06:55:52;19.00;;;14.93;;
5869;SDS011;2961;47.702;9.410;2023-05-16T06:58:18;18.43;;;15.60;;
5869;SDS011;2961;47.702;9.410;2023-05-16T07:00:47;21.03;;;13.23;;
5869;SDS011;2961;47.702;9.410;2023-05-16T07:03:15;19.90;;;14.70;;
5869;SDS011;2961;47.702;9.410;2023-05-16T07:05:43;16.17;;;14.00;;
5869;SDS011;2961;47.702;9.410;2023-05-16T07:08:10;17.57;;;14.90;;
5869;SDS011;2961;47.702;9.410;2023-05-16T07:10:37;17.17;;;13.30;;
5869;SDS011;2961;47.702;9.410;2023-05-16T07:13:04;17.10;;;15.03;;
5869;SDS011;2961;47.702;9.410;2023-05-16T07:15:32;22.13;;;15.07;;
5869;SDS011;2961;47.702;9.410;2023-05-16T07:17:59;16.00;;;14.33;;
5869;SDS011;2961;47.702;9.410;2023-05-16T07:20:25;20.23;;;16.20;;
5869;SDS011;2961;47.702;9.410;2023-05-16T07:22:54;23.77;;;16.50;;
5869;SDS011;2961;47.702;9.410;2023-05-16T07:25:21;22.20;;;16.30;;
5869;SDS011;2961;47.702;9.410;2023-05-16T07:27:48;27.87;;;18.97;;
5869;SDS011;2961;47.702;9.410;2023-05-16T07:30:15;23.80;;;17.77;;
5869;SDS011;2961;47.702;9.410;2023-05-16T07:32:41;25.53;;;17.47;;
5869;SDS011;2961;47.702;9.410;2023-05-16T07:35:08;21.77;;;17.47;;
5869;SDS011;2961;47.702;9.410;2023-05-16T07:37:37;23.87;;;18.97;;
5869;SDS011;2961;47.702;9.410;2023-05-16T07:40:07;23.60;;;17.63;;
5869;SDS011;2961;47.702;9.410;2023-05-16T07:42:35;31.73;;;19.93;;
5869;SDS011;2961;47.702;9.410;2023-05-16T07:45:02;21.73;;;16.63;;
5869;SDS011;2961;47.702;9.410;2023-05-16T07:47:29;22.97;;;18.20;;
5869;SDS011;2961;47.702;9.410;2023-05-16T07:49:56;21.23;;;16.80;;
5869;SDS011;2961;47.702;9.410;2023-05-16T07:52:23;25.40;;;16.97;;
5869;SDS011;2961;47.702;9.410;2023-05-16T07:54:50;22.20;;;17.90;;
5869;SDS011;2961;47.702;9.410;2023-05-16T07:57:18;24.07;;;19.57;;
5869;SDS011;2961;47.702;9.410;2023-05-16T07:59:45;22.73;;;17.13;;
5869;SDS011;2961;47.702;9.410;2023-05-16T08:02:11;19.13;;;16.30;;
5869;SDS011;2961;47.702;9.410;2023-05-16T08:04:38;21.70;;;17.10;;
5869;SDS011;2961;47.702;9.410;2023-05-16T08:07:05;18.30;;;14.83;;
5869;SDS011;2961;47.702;9.410;2023-05-16T08:09:32;20.57;;;14.67;;
5869;SDS011;2961;47.702;9.410;2023-05-16T08:11:58;19.23;;;15.70;;
5869;SDS011;2961;47.702;9.410;2023-05-16T08:14:29;17.17;;;14.23;;
5869;SDS011;2961;47.702;9.410;2023-05-16T08:16:57;19.90;;;13.80;;
5869;SDS011;2961;47.702;9.410;2023-05-16T08:19:24;20.40;;;16.20;;
5869;SDS011;2961;47.702;9.410;2023-05-16T08:21:50;19.00;;;14.17;;
5869;SDS011;2961;47.702;9.410;2023-05-16T08:24:17;16.47;;;14.70;;
5869;SDS011;2961;47.702;9.410;2023-05-16T08:26:44;16.13;;;13.20;;
5869;SDS011;2961;47.702;9.410;2023-05-16T08:29:11;16.30;;;14.00;;
5869;SDS011;2961;47.702;9.410;2023-05-16T08:31:39;18.63;;;15.53;;
5869;SDS011;2961;47.702;9.410;2023-05-16T08:34:06;16.57;;;13.60;;
5869;SDS011;2961;47.702;9.410;2023-05-16T08:36:34;14.93;;;13.37;;
5869;SDS011;2961;47.702;9.410;2023-05-16T08:39:01;14.70;;;13.23;;
5869;SDS011;2961;47.702;9.410;2023-05-16T08:41:28;20.03;;;14.60;;
5869;SDS011;2961;47.702;9.410;2023-05-16T08:43:55;17.60;;;14.67;;
5869;SDS011;2961;47.702;9.410;2023-05-16T08:46:22;16.90;;;14.40;;
5869;SDS011;2961;47.702;9.410;2023-05-16T08:48:52;19.53;;;15.00;;
5869;SDS011;2961;47.702;9.410;2023-05-16T08:51:20;23.53;;;16.27;;
5869;SDS011;2961;47.702;9.410;2023-05-16T08:53:49;23.37;;;15.83;;
5869;SDS011;2961;47.702;9.410;2023-05-16T08:56:19;21.23;;;15.50;;
5869;SDS011;2961;47.702;9.410;2023-05-16T08:58:47;14.97;;;13.50;;
5869;SDS011;2961;47.702;9.410;2023-05-16T09:01:15;17.63;;;15.77;;
5869;SDS011;2961;47.702;9.410;2023-05-16T09:03:44;18.40;;;14.43;;
5869;SDS011;2961;47.702;9.410;2023-05-16T09:06:14;15.83;;;14.17;;
5869;SDS011;2961;47.702;9.410;2023-05-16T09:08:41;18.00;;;14.80;;
5869;SDS011;2961;47.702;9.410;2023-05-16T09:11:08;17.77;;;15.87;;
5869;SDS011;2961;47.702;9.410;2023-05-16T09:13:36;19.10;;;14.50;;
5869;SDS011;2961;47.702;9.410;2023-05-16T09:16:09;15.60;;;13.63;;
5869;SDS011;2961;47.702;9.410;2023-05-16T09:18:37;17.33;;;13.20;;
5869;SDS011;2961;47.702;9.410;2023-05-16T09:21:05;14.53;;;13.03;;
5869;SDS011;2961;47.702;9.410;2023-05-16T09:23:33;16.33;;;14.40;;
5869;SDS011;2961;47.702;9.410;2023-05-16T09:26:01;15.27;;;12.03;;
5869;SDS011;2961;47.702;9.410;2023-05-16T09:28:28;18.27;;;13.43;;
5869;SDS011;2961;47.702;9.410;2023-05-16T09:30:56;13.37;;;12.07;;
5869;SDS011;2961;47.702;9.410;2023-05-16T09:33:25;13.93;;;12.43;;
5869;SDS011;2961;47.702;9.410;2023-05-16T09:35:53;12.10;;;10.90;;
5869;SDS011;2961;47.702;9.410;2023-05-16T09:38:21;14.17;;;11.47;;
5869;SDS011;2961;47.702;9.410;2023-05-16T09:40:50;19.63;;;13.60;;
5869;SDS011;2961;47.702;9.410;2023-05-16T09:43:18;17.70;;;14.70;;
5869;SDS011;2961;47.702;9.410;2023-05-16T09:45:48;20.80;;;15.40;;
5869;SDS011;2961;47.702;9.410;2023-05-16T09:48:15;21.10;;;15.60;;
5869;SDS011;2961;47.702;9.410;2023-05-16T09:50:45;17.20;;;15.40;;
5869;SDS011;2961;47.702;9.410;2023-05-16T09:53:15;18.03;;;15.17;;
5869;SDS011;2961;47.702;9.410;2023-05-16T09:55:42;20.93;;;16.03;;
5869;SDS011;2961;47.702;9.410;2023-05-16T09:58:10;22.63;;;16.83;;
5869;SDS011;2961;47.702;9.410;2023-05-16T10:00:37;24.07;;;16.63;;
5869;SDS011;2961;47.702;9.410;2023-05-16T10:03:06;22.93;;;17.10;;
5869;SDS011;2961;47.702;9.410;2023-05-16T10:05:33;21.33;;;17.83;;
5869;SDS011;2961;47.702;9.410;2023-05-16T10:08:01;20.60;;;16.77;;
5869;SDS011;2961;47.702;9.410;2023-05-16T10:10:29;21.80;;;17.50;;
5869;SDS011;2961;47.702;9.410;2023-05-16T10:13:00;26.67;;;17.50;;
5869;SDS011;2961;47.702;9.410;2023-05-16T10:15:31;19.40;;;16.53;;
5869;SDS011;2961;47.702;9.410;2023-05-16T10:18:00;29.53;;;18.83;;
5869;SDS011;2961;47.702;9.410;2023-05-16T10:20:28;21.40;;;17.13;;
5869;SDS011;2961;47.702;9.410;2023-05-16T10:22:55;19.13;;;14.40;;
5869;SDS011;2961;47.702;9.410;2023-05-16T10:25:24;17.67;;;15.43;;
5869;SDS011;2961;47.702;9.410;2023-05-16T10:27:55;22.80;;;15.63;;
5869;SDS011;2961;47.702;9.410;2023-05-16T10:30:22;21.30;;;17.10;;
5869;SDS011;2961;47.702;9.410;2023-05-16T10:32:50;20.63;;;15.80;;
5869;SDS011;2961;47.702;9.410;2023-05-16T10:35:18;19.87;;;15.70;;
5869;SDS011;2961;47.702;9.410;2023-05-16T10:37:45;21.90;;;16.47;;
5869;SDS011;2961;47.702;9.410;2023-05-16T10:40:13;27.30;;;17.13;;
5869;SDS011;2961;47.702;9.410;2023-05-16T10:42:43;19.57;;;17.20;;
5869;SDS011;2961;47.702;9.410;2023-05-16T10:45:20;24.50;;;18.43;;
5869;SDS011;2961;47.702;9.410;2023-05-16T10:47:51;23.03;;;18.30;;
5869;SDS011;2961;47.702;9.410;2023-05-16T10:50:32;24.30;;;18.63;;
5869;SDS011;2961;47.702;9.410;2023-05-16T10:53:10;29.83;;;19.40;;
5869;SDS011;2961;47.702;9.410;2023-05-16T10:55:48;23.67;;;19.30;;
5869;SDS011;2961;47.702;9.410;2023-05-16T10:58:38;22.87;;;18.73;;
5869;SDS011;2961;47.702;9.410;2023-05-16T11:01:19;26.80;;;20.40;;
5869;SDS011;2961;47.702;9.410;2023-05-16T11:04:01;29.00;;;20.17;;
5869;SDS011;2961;47.702;9.410;2023-05-16T11:06:34;21.40;;;16.10;;
5869;SDS011;2961;47.702;9.410;2023-05-16T11:09:17;24.43;;;18.57;;
5869;SDS011;2961;47.702;9.410;2023-05-16T11:11:54;23.90;;;18.03;;
5869;SDS011;2961;47.702;9.410;2023-05-16T11:14:24;26.23;;;19.55;;
5869;SDS011;2961;47.702;9.410;2023-05-16T11:16:55;22.97;;;18.77;;
5869;SDS011;2961;47.702;9.410;2023-05-16T11:19:31;20.57;;;17.43;;
5869;SDS011;2961;47.702;9.410;2023-05-16T11:22:12;22.70;;;17.00;;
5869;SDS011;2961;47.702;9.410;2023-05-16T11:24:50;27.77;;;18.43;;
5869;SDS011;2961;47.702;9.410;2023-05-16T11:27:19;24.90;;;16.70;;
5869;SDS011;2961;47.702;9.410;2023-05-16T11:29:48;20.30;;;15.87;;
5869;SDS011;2961;47.702;9.410;2023-05-16T11:32:17;22.17;;;15.90;;
5869;SDS011;2961;47.702;9.410;2023-05-16T11:34:47;21.80;;;18.13;;
5869;SDS011;2961;47.702;9.410;2023-05-16T11:37:15;25.00;;;16.77;;
5869;SDS011;2961;47.702;9.410;2023-05-16T11:39:42;21.47;;;18.50;;
5869;SDS011;2961;47.702;9.410;2023-05-16T11:42:09;22.93;;;16.67;;
5869;SDS011;2961;47.702;9.410;2023-05-16T11:44:37;24.50;;;16.80;;
5869;SDS011;2961;47.702;9.410;2023-05-16T11:47:04;23.07;;;17.40;;
5869;SDS011;2961;47.702;9.410;2023-05-16T11:49:31;24.17;;;16.90;;
5869;SDS011;2961;47.702;9.410;2023-05-16T11:52:00;20.30;;;16.93;;
5869;SDS011;2961;47.702;9.410;2023-05-16T11:54:28;25.07;;;17.40;;
5869;SDS011;2961;47.702;9.410;2023-05-16T11:56:55;19.63;;;15.23;;
5869;SDS011;2961;47.702;9.410;2023-05-16T11:59:22;23.63;;;15.50;;
5869;SDS011;2961;47.702;9.410;2023-05-16T12:01:50;22.90;;;15.80;;
5869;SDS011;2961;47.702;9.410;2023-05-16T12:04:17;28.27;;;15.77;;
5869;SDS011;2961;47.702;9.410;2023-05-16T12:06:56;20.70;;;15.30;;
5869;SDS011;2961;47.702;9.410;2023-05-16T12:09:26;21.97;;;14.17;;
5869;SDS011;2961;47.702;9.410;2023-05-16T12:11:53;17.70;;;14.33;;
5869;SDS011;2961;47.702;9.410;2023-05-16T12:14:20;18.60;;;13.30;;
5869;SDS011;2961;47.702;9.410;2023-05-16T12:16:47;18.43;;;13.10;;
5869;SDS011;2961;47.702;9.410;2023-05-16T12:19:14;19.47;;;13.97;;
5869;SDS011;2961;47.702;9.410;2023-05-16T12:21:41;16.07;;;12.20;;
5869;SDS011;2961;47.702;9.410;2023-05-16T12:24:08;17.23;;;13.80;;
5869;SDS011;2961;47.702;9.410;2023-05-16T12:26:38;15.87;;;12.60;;
5869;SDS011;2961;47.702;9.410;2023-05-16T12:29:06;17.30;;;12.70;;
5869;SDS011;2961;47.702;9.410;2023-05-16T12:31:35;13.90;;;12.37;;
5869;SDS011;2961;47.702;9.410;2023-05-16T12:34:03;17.27;;;12.40;;
5869;SDS011;2961;47.702;9.410;2023-05-16T12:36:30;13.10;;;11.70;;
5869;SDS011;2961;47.702;9.410;2023-05-16T12:38:59;13.40;;;12.00;;
5869;SDS011;2961;47.702;9.410;2023-05-16T12:41:27;15.00;;;12.30;;
5869;SDS011;2961;47.702;9.410;2023-05-16T12:44:08;17.43;;;13.50;;
5869;SDS011;2961;47.702;9.410;2023-05-16T12:46:39;17.83;;;12.27;;
5869;SDS011;2961;47.702;9.410;2023-05-16T12:49:06;14.73;;;13.17;;
5869;SDS011;2961;47.702;9.410;2023-05-16T12:51:33;17.47;;;12.03;;
5869;SDS011;2961;47.702;9.410;2023-05-16T12:54:06;15.70;;;13.70;;
5869;SDS011;2961;47.702;9.410;2023-05-16T12:56:34;14.97;;;11.83;;
5869;SDS011;2961;47.702;9.410;2023-05-16T12:59:00;14.83;;;12.97;;
5869;SDS011;2961;47.702;9.410;2023-05-16T13:01:29;11.90;;;10.33;;
5869;SDS011;2961;47.702;9.410;2023-05-16T13:03:55;13.93;;;12.53;;
5869;SDS011;2961;47.702;9.410;2023-05-16T13:06:36;18.20;;;12.83;;
5869;SDS011;2961;47.702;9.410;2023-05-16T13:09:03;14.27;;;11.43;;
5869;SDS011;2961;47.702;9.410;2023-05-16T13:11:30;13.77;;;11.63;;
5869;SDS011;2961;47.702;9.410;2023-05-16T13:13:56;13.47;;;11.73;;
5869;SDS011;2961;47.702;9.410;2023-05-16T13:16:23;14.27;;;12.50;;
5869;SDS011;2961;47.702;9.410;2023-05-16T13:18:51;18.27;;;12.50;;
5869;SDS011;2961;47.702;9.410;2023-05-16T13:21:18;14.03;;;12.50;;
5869;SDS011;2961;47.702;9.410;2023-05-16T13:23:46;13.17;;;11.87;;
5869;SDS011;2961;47.702;9.410;2023-05-16T13:26:13;16.60;;;13.53;;
5869;SDS011;2961;47.702;9.410;2023-05-16T13:28:39;15.60;;;12.50;;
5869;SDS011;2961;47.702;9.410;2023-05-16T13:31:06;14.73;;;13.30;;
5869;SDS011;2961;47.702;9.410;2023-05-16T13:33:33;14.73;;;13.00;;
5869;SDS011;2961;47.702;9.410;2023-05-16T13:36:03;13.90;;;11.63;;
5869;SDS011;2961;47.702;9.410;2023-05-16T13:38:30;15.13;;;13.63;;
5869;SDS011;2961;47.702;9.410;2023-05-16T13:40:57;19.40;;;13.97;;
5869;SDS011;2961;47.702;9.410;2023-05-16T13:43:23;15.37;;;13.40;;
5869;SDS011;2961;47.702;9.410;2023-05-16T13:45:50;17.97;;;12.87;;
5869;SDS011;2961;47.702;9.410;2023-05-16T13:48:17;13.67;;;12.23;;
5869;SDS011;2961;47.702;9.410;2023-05-16T13:50:44;15.87;;;14.17;;
5869;SDS011;2961;47.702;9.410;2023-05-16T13:53:12;19.00;;;13.80;;
5869;SDS011;2961;47.702;9.410;2023-05-16T13:55:40;14.93;;;13.43;;
5869;SDS011;2961;47.702;9.410;2023-05-16T13:58:06;16.33;;;13.30;;
5869;SDS011;2961;47.702;9.410;2023-05-16T14:00:33;18.93;;;14.90;;
5869;SDS011;2961;47.702;9.410;2023-05-16T14:03:00;17.97;;;14.43;;
5869;SDS011;2961;47.702;9.410;2023-05-16T14:05:27;22.77;;;15.53;;
5869;SDS011;2961;47.702;9.410;2023-05-16T14:07:54;16.80;;;13.53;;
5869;SDS011;2961;47.702;9.410;2023-05-16T14:10:22;17.57;;;14.67;;
5869;SDS011;2961;47.702;9.410;2023-05-16T14:12:49;20.83;;;14.47;;
5869;SDS011;2961;47.702;9.410;2023-05-16T14:15:15;17.43;;;14.53;;
5869;SDS011;2961;47.702;9.410;2023-05-16T14:17:42;20.60;;;14.80;;
5869;SDS011;2961;47.702;9.410;2023-05-16T14:20:10;22.43;;;13.60;;
5869;SDS011;2961;47.702;9.410;2023-05-16T14:22:39;18.43;;;13.80;;
5869;SDS011;2961;47.702;9.410;2023-05-16T14:25:08;21.43;;;14.23;;
5869;SDS011;2961;47.702;9.410;2023-05-16T14:27:36;21.20;;;15.00;;
5869;SDS011;2961;47.702;9.410;2023-05-16T14:30:04;20.00;;;14.70;;
5869;SDS011;2961;47.702;9.410;2023-05-16T14:32:32;16.80;;;15.00;;
5869;SDS011;2961;47.702;9.410;2023-05-16T14:34:58;21.60;;;15.47;;
5869;SDS011;2961;47.702;9.410;2023-05-16T14:37:25;17.37;;;15.03;;
5869;SDS011;2961;47.702;9.410;2023-05-16T14:39:52;19.93;;;15.10;;
5869;SDS011;2961;47.702;9.410;2023-05-16T14:42:19;20.60;;;17.00;;
5869;SDS011;2961;47.702;9.410;2023-05-16T14:44:47;25.40;;;15.47;;
5869;SDS011;2961;47.702;9.410;2023-05-16T14:47:14;20.50;;;16.43;;
5869;SDS011;2961;47.702;9.410;2023-05-16T14:49:41;19.60;;;17.13;;
5869;SDS011;2961;47.702;9.410;2023-05-16T14:52:07;23.23;;;16.67;;
5869;SDS011;2961;47.702;9.410;2023-05-16T14:54:34;20.27;;;15.47;;
5869;SDS011;2961;47.702;9.410;2023-05-16T14:57:01;17.83;;;15.57;;
5869;SDS011;2961;47.702;9.410;2023-05-16T14:59:29;22.80;;;16.70;;
5869;SDS011;2961;47.702;9.410;2023-05-16T15:01:57;18.80;;;15.50;;
5869;SDS011;2961;47.702;9.410;2023-05-16T15:04:25;19.50;;;16.30;;
5869;SDS011;2961;47.702;9.410;2023-05-16T15:06:52;20.87;;;17.30;;